Aérodrome :
LOGIN :

S'inscrire | Disclaimer

   EN    FR    IT 

 










Légende :    VFR   VFR Marginal   IFR   IFR Intensif   IFR Très Intensif
Visi : 
Plafond : 
>= 8 km
>= 3000ft
5 à 8 km
1000 à 3000 ft
1500m à 5 km
500 à 1000 ft
800 à 1500m
200 à 500 ft
< 800m
< 200 ft
Symboles :   Orages  Brouillard  Fortes neiges  Fortes précipitations  Vent > 20 kt
SIGMETs :   Divers  Orages  Givrage  Turbulence  Onde Orograph.  Cendres Volcan.







- Altitude de l'aérodrome : 137 ft


LIPS - Istrana AFB Treviso

DERNIER METAR :
  • 291655Z 21006KT CAVOK 15/02 Q1015 RMK SKC VIS MIN 9999 WIND THR26 15004KT WIND THR08 15004KT BLU

METARs EXPIRÉS :
  • 291555Z 21004KT 9999 SCT015 16/03 Q1015 RMK SCT VIS MIN 9999 WIND THR26 23003KT WIND THR08 23003KT BLU
  • 291455Z 23006KT 9999 SCT015 17/03 Q1015 RMK SCT VIS MIN 9999 WIND THR26 20005KT WIND THR08 20005KT BLU

TAF TAF LIPS
Valide du 29 à 18h jusqu'au 30 à 03h UTC


291700Z 2918/3003 19005KT 9999 FEW040
Pas de NOTAMs connus pour ce terrain.



MET'MAP, la Météo Aéronautique d'un coup d'oeil ! - Copyright ORBIFLY Décembre 2007 - Disclaimer

ORBIFLY MET'MAP TEAM :

Programmation & Développement : Alexandra Zaïnal
Conception & Développement : Baudouin d'Aumeries
Co-Programmation & Développement : Marc-Olivier Méhu
Soutien technique & logistique : Manuel Goepfert

Contact : metmap@orbifly.com




SOURCES & CREDITS :

   NOAA